Time;durP1;ratioP1;P1;durP2;ratioP2;P2;SDS_P1;SDS_P2;PMS_P1;PMS_P2;Temp;Humidity;BMP_temperature;BMP_pressure;BME280_temperature;BME280_humidity;BME280_pressure;Samples;Min_cycle;Max_cycle;Signal;HPM_P1;HPM_P2
2021/06/11 00:01:30;;;;;;;4.07;3.67;;;;;;;;;;4879170;29;20079;-46
2021/06/11 00:03:55;;;;;;;4.05;3.05;;;;;;;;;;4879200;29;20029;-46
2021/06/11 00:06:21;;;;;;;5.00;3.55;;;;;;;;;;4879195;29;20029;-46
2021/06/11 00:08:46;;;;;;;5.97;3.58;;;;;;;;;;4877946;29;20028;-45
2021/06/11 00:11:12;;;;;;;8.13;3.70;;;;;;;;;;4879147;29;20028;-45
2021/06/11 00:13:37;;;;;;;4.05;3.35;;;;;;;;;;4877455;29;20076;-45
2021/06/11 00:16:02;;;;;;;5.72;3.55;;;;;;;;;;4879136;29;20369;-46
2021/06/11 00:18:28;;;;;;;6.97;3.50;;;;;;;;;;4878889;29;20021;-46
2021/06/11 00:20:55;;;;;;;5.15;3.95;;;;;;;;;;4879283;29;20126;-45
2021/06/11 00:23:20;;;;;;;3.92;3.53;;;;;;;;;;4879139;29;20025;-46
2021/06/11 00:25:46;;;;;;;4.03;3.22;;;;;;;;;;4878893;29;20091;-45
2021/06/11 00:28:11;;;;;;;3.97;3.10;;;;;;;;;;4878989;29;20025;-46
2021/06/11 00:30:39;;;;;;;11.18;3.40;;;;;;;;;;4879062;29;20033;-46
2021/06/11 00:33:05;;;;;;;3.97;2.67;;;;;;;;;;4878660;29;20388;-46
2021/06/11 00:35:31;;;;;;;5.70;3.85;;;;;;;;;;4878793;29;20028;-46
2021/06/11 00:37:57;;;;;;;4.22;3.35;;;;;;;;;;4878638;29;20053;-45
2021/06/11 00:40:22;;;;;;;4.18;3.20;;;;;;;;;;4878682;29;20108;-45
2021/06/11 00:42:47;;;;;;;4.20;3.08;;;;;;;;;;4878776;29;20030;-45
2021/06/11 00:45:13;;;;;;;5.10;3.80;;;;;;;;;;4878954;29;20116;-45
2021/06/11 00:47:38;;;;;;;4.45;3.75;;;;;;;;;;4877386;29;20487;-46
2021/06/11 00:50:05;;;;;;;6.70;3.85;;;;;;;;;;4877391;29;20101;-46
2021/06/11 00:52:31;;;;;;;4.50;3.25;;;;;;;;;;4878756;29;20044;-46
2021/06/11 00:54:57;;;;;;;11.38;3.90;;;;;;;;;;4878599;29;20523;-45
2021/06/11 00:57:23;;;;;;;4.47;3.47;;;;;;;;;;4878547;29;20029;-46
2021/06/11 00:59:49;;;;;;;5.00;3.25;;;;;;;;;;4878881;29;20358;-46
2021/06/11 01:02:15;;;;;;;5.20;3.10;;;;;;;;;;4878868;29;20372;-46
2021/06/11 01:04:41;;;;;;;4.10;3.25;;;;;;;;;;4878810;29;20040;-45
2021/06/11 01:07:06;;;;;;;4.72;3.42;;;;;;;;;;4878544;29;20044;-45
2021/06/11 01:09:33;;;;;;;10.05;4.53;;;;;;;;;;4878404;29;20061;-45
2021/06/11 01:11:59;;;;;;;6.40;3.67;;;;;;;;;;4878589;29;20115;-45
2021/06/11 01:14:24;;;;;;;4.63;3.00;;;;;;;;;;4877137;29;20124;-45
2021/06/11 01:16:50;;;;;;;4.20;2.90;;;;;;;;;;4878530;29;20024;-45
2021/06/11 01:19:19;;;;;;;4.97;3.42;;;;;;;;;;4878509;29;20037;-45
2021/06/11 01:21:59;;;;;;;4.15;3.28;;;;;;;;;;4878534;29;20429;-46
2021/06/11 01:24:26;;;;;;;3.70;2.60;;;;;;;;;;4878311;29;20025;-46
2021/06/11 01:26:53;;;;;;;4.93;3.58;;;;;;;;;;4881559;29;20043;-46
2021/06/11 01:29:24;;;;;;;3.70;3.08;;;;;;;;;;4881910;29;20054;-45
2021/06/11 01:32:00;;;;;;;6.10;3.97;;;;;;;;;;4882111;29;20033;-46
2021/06/11 01:34:33;;;;;;;4.20;3.60;;;;;;;;;;4881774;29;20045;-45
2021/06/11 01:36:58;;;;;;;3.47;2.85;;;;;;;;;;4881612;29;20072;-45
2021/06/11 01:39:25;;;;;;;3.83;3.05;;;;;;;;;;4881832;29;20121;-46
2021/06/11 01:41:51;;;;;;;3.42;3.03;;;;;;;;;;4882024;29;20029;-45
2021/06/11 01:44:17;;;;;;;4.43;3.45;;;;;;;;;;4881550;29;20035;-45
2021/06/11 01:46:43;;;;;;;4.10;3.22;;;;;;;;;;4881663;29;20111;-45
2021/06/11 01:49:09;;;;;;;4.97;3.58;;;;;;;;;;4881598;29;20025;-46
2021/06/11 01:51:35;;;;;;;3.67;2.72;;;;;;;;;;4881501;29;20029;-45
2021/06/11 01:54:01;;;;;;;3.88;3.28;;;;;;;;;;4881453;29;20069;-46
2021/06/11 01:56:27;;;;;;;4.20;3.80;;;;;;;;;;4881645;29;20396;-45
2021/06/11 01:58:53;;;;;;;4.80;3.55;;;;;;;;;;4881701;29;20021;-45
2021/06/11 02:01:19;;;;;;;5.50;3.40;;;;;;;;;;4881668;29;20032;-45
2021/06/11 02:03:46;;;;;;;3.65;3.08;;;;;;;;;;4881568;29;20388;-45
2021/06/11 02:06:13;;;;;;;5.00;3.40;;;;;;;;;;4881388;29;20033;-46
2021/06/11 02:08:38;;;;;;;9.80;3.63;;;;;;;;;;4881214;29;20031;-46
2021/06/11 02:11:04;;;;;;;5.20;3.38;;;;;;;;;;4881514;29;20036;-46
2021/06/11 02:13:30;;;;;;;3.33;3.03;;;;;;;;;;4881310;29;20096;-45
2021/06/11 02:15:56;;;;;;;4.55;3.20;;;;;;;;;;4881254;29;20482;-46
2021/06/11 02:18:22;;;;;;;7.68;3.25;;;;;;;;;;4881038;29;20025;-47
2021/06/11 02:20:51;;;;;;;4.97;2.85;;;;;;;;;;4881237;29;20058;-46
2021/06/11 02:23:16;;;;;;;4.40;3.05;;;;;;;;;;4881010;29;20048;-46
2021/06/11 02:25:42;;;;;;;7.35;3.30;;;;;;;;;;4880939;29;20036;-45
2021/06/11 02:28:08;;;;;;;4.45;3.33;;;;;;;;;;4881231;29;20029;-45
2021/06/11 02:30:33;;;;;;;4.43;3.40;;;;;;;;;;4879696;29;20053;-46
2021/06/11 02:32:58;;;;;;;4.50;3.05;;;;;;;;;;4880614;29;20556;-47
2021/06/11 02:35:24;;;;;;;8.38;3.13;;;;;;;;;;4881050;29;20388;-45
2021/06/11 02:37:51;;;;;;;7.28;2.67;;;;;;;;;;4880420;29;20399;-45
2021/06/11 02:40:17;;;;;;;3.78;3.13;;;;;;;;;;4880696;29;20071;-47
2021/06/11 02:42:44;;;;;;;5.50;3.60;;;;;;;;;;4880597;29;20064;-46
2021/06/11 02:45:11;;;;;;;4.40;2.85;;;;;;;;;;4880582;29;20492;-45
2021/06/11 02:47:42;;;;;;;5.45;3.67;;;;;;;;;;4880763;29;20112;-45
2021/06/11 02:50:11;;;;;;;4.60;3.10;;;;;;;;;;4880594;29;20052;-45
2021/06/11 02:52:38;;;;;;;3.08;2.75;;;;;;;;;;4880605;29;20021;-50
2021/06/11 02:55:05;;;;;;;3.55;2.80;;;;;;;;;;4880407;29;20043;-45
2021/06/11 02:57:47;;;;;;;4.50;2.95;;;;;;;;;;4880347;29;20032;-45
2021/06/11 03:00:13;;;;;;;4.32;3.20;;;;;;;;;;4880635;29;20067;-45
2021/06/11 03:02:56;;;;;;;4.07;2.90;;;;;;;;;;4880133;29;20060;-45
2021/06/11 03:05:22;;;;;;;;;;;;;;;;;;4880921;29;20032;-46
2021/06/11 03:07:48;;;;;;;3.30;2.70;;;;;;;;;;4880268;29;19912;-45
2021/06/11 03:10:14;;;;;;;3.25;2.75;;;;;;;;;;4880212;29;20071;-46
2021/06/11 03:12:41;;;;;;;6.40;3.85;;;;;;;;;;4878682;29;20085;-45
2021/06/11 03:15:07;;;;;;;4.35;2.85;;;;;;;;;;4880150;29;20040;-45
2021/06/11 03:17:50;;;;;;;8.35;3.13;;;;;;;;;;4880019;29;20282;-45
2021/06/11 03:20:20;;;;;;;4.13;2.22;;;;;;;;;;4880315;29;20106;-45
2021/06/11 03:22:49;;;;;;;4.22;3.28;;;;;;;;;;4879831;29;20051;-45
2021/06/11 03:25:17;;;;;;;5.50;3.78;;;;;;;;;;4880229;29;20379;-45
2021/06/11 03:27:46;;;;;;;7.78;2.85;;;;;;;;;;4879852;29;20028;-45
2021/06/11 03:30:12;;;;;;;3.20;2.80;;;;;;;;;;4879853;29;20033;-45
2021/06/11 03:32:44;;;;;;;3.45;2.67;;;;;;;;;;4879616;29;20080;-45
2021/06/11 03:35:21;;;;;;;3.38;3.08;;;;;;;;;;4879733;29;20400;-45
2021/06/11 03:37:48;;;;;;;8.38;3.42;;;;;;;;;;4879544;29;20519;-46
2021/06/11 03:40:16;;;;;;;4.32;2.83;;;;;;;;;;4879758;29;20029;-45
2021/06/11 03:42:42;;;;;;;5.80;3.00;;;;;;;;;;4879565;29;20100;-45
2021/06/11 03:45:08;;;;;;;3.25;2.83;;;;;;;;;;4879483;29;20029;-45
2021/06/11 03:47:35;;;;;;;3.08;2.50;;;;;;;;;;4879361;29;20029;-45
2021/06/11 03:50:02;;;;;;;4.78;3.25;;;;;;;;;;4879481;29;20035;-46
2021/06/11 03:52:29;;;;;;;3.80;2.88;;;;;;;;;;4879253;29;20519;-45
2021/06/11 03:54:57;;;;;;;3.75;2.88;;;;;;;;;;4879498;29;20029;-46
2021/06/11 03:57:23;;;;;;;6.05;3.08;;;;;;;;;;4879531;29;20134;-45
2021/06/11 03:59:49;;;;;;;3.25;2.55;;;;;;;;;;4879555;29;20021;-46
2021/06/11 04:02:15;;;;;;;3.97;2.97;;;;;;;;;;4879349;29;20032;-46
2021/06/11 04:04:40;;;;;;;5.28;3.08;;;;;;;;;;4879422;29;20025;-45
2021/06/11 04:07:25;;;;;;;4.97;2.35;;;;;;;;;;4879185;29;20041;-46
2021/06/11 04:09:57;;;;;;;4.70;2.88;;;;;;;;;;4879229;29;20033;-46
2021/06/11 04:12:24;;;;;;;3.10;2.22;;;;;;;;;;4878959;29;20036;-45
2021/06/11 04:14:50;;;;;;;3.03;2.38;;;;;;;;;;4879339;29;20029;-45
2021/06/11 04:17:20;;;;;;;5.88;2.63;;;;;;;;;;4879431;29;20220;-45
2021/06/11 04:19:49;;;;;;;3.95;2.42;;;;;;;;;;4879150;29;20054;-45
2021/06/11 04:22:17;;;;;;;3.33;2.17;;;;;;;;;;4879282;29;20116;-45
2021/06/11 04:24:45;;;;;;;2.67;2.03;;;;;;;;;;4878873;29;20472;-45
2021/06/11 04:27:11;;;;;;;4.68;2.75;;;;;;;;;;4877640;29;20128;-45
2021/06/11 04:29:37;;;;;;;2.85;2.25;;;;;;;;;;4878877;29;20563;-45
2021/06/11 04:32:02;;;;;;;2.92;2.53;;;;;;;;;;4878872;29;20489;-45
2021/06/11 04:34:28;;;;;;;5.75;2.67;;;;;;;;;;4878604;29;20037;-46
2021/06/11 04:36:54;;;;;;;3.90;2.55;;;;;;;;;;4878673;29;20395;-46
2021/06/11 04:39:20;;;;;;;3.20;2.80;;;;;;;;;;4878949;29;20449;-46
2021/06/11 04:41:46;;;;;;;3.42;2.70;;;;;;;;;;4878884;29;20064;-46
2021/06/11 04:44:11;;;;;;;6.03;2.78;;;;;;;;;;4878745;29;20096;-45
2021/06/11 04:46:37;;;;;;;3.33;2.63;;;;;;;;;;4878688;29;20033;-46
2021/06/11 04:49:04;;;;;;;3.17;2.83;;;;;;;;;;4878965;29;20033;-45
2021/06/11 04:51:30;;;;;;;2.88;2.47;;;;;;;;;;4878670;29;20060;-45
2021/06/11 04:53:55;;;;;;;7.88;2.40;;;;;;;;;;4878587;29;20064;-45
2021/06/11 04:56:21;;;;;;;3.58;1.92;;;;;;;;;;4878806;29;20025;-45
2021/06/11 04:58:48;;;;;;;3.25;2.42;;;;;;;;;;4878961;29;20084;-45
2021/06/11 05:01:14;;;;;;;2.92;2.30;;;;;;;;;;4880773;29;20488;-45
2021/06/11 05:03:39;;;;;;;3.25;2.83;;;;;;;;;;4882331;29;20036;-45
2021/06/11 05:06:05;;;;;;;2.55;2.13;;;;;;;;;;4882486;29;20025;-45
2021/06/11 05:08:31;;;;;;;2.83;2.40;;;;;;;;;;4882533;29;20468;-45
2021/06/11 05:10:57;;;;;;;4.85;2.45;;;;;;;;;;4882289;29;20025;-45
2021/06/11 05:13:22;;;;;;;3.13;2.58;;;;;;;;;;4882170;29;20037;-46
2021/06/11 05:15:48;;;;;;;3.15;2.60;;;;;;;;;;4882300;29;20029;-46
2021/06/11 05:18:13;;;;;;;4.25;2.63;;;;;;;;;;4882222;29;20029;-45
2021/06/11 05:20:39;;;;;;;2.88;2.58;;;;;;;;;;4882107;29;20036;-45
2021/06/11 05:23:07;;;;;;;5.32;2.58;;;;;;;;;;4882066;29;20035;-46
2021/06/11 05:25:34;;;;;;;3.70;2.40;;;;;;;;;;4882040;29;20029;-45
2021/06/11 05:27:59;;;;;;;3.55;2.45;;;;;;;;;;4882057;29;20031;-45
2021/06/11 05:30:26;;;;;;;4.55;2.47;;;;;;;;;;4881928;29;20025;-45
2021/06/11 05:32:51;;;;;;;2.92;2.17;;;;;;;;;;4881810;29;20411;-45
2021/06/11 05:35:17;;;;;;;2.80;2.08;;;;;;;;;;4881920;29;20116;-45
2021/06/11 05:37:42;;;;;;;2.33;2.08;;;;;;;;;;4881643;29;20048;-44
2021/06/11 05:40:08;;;;;;;6.72;2.67;;;;;;;;;;4881862;29;20037;-45
2021/06/11 05:42:33;;;;;;;3.35;2.65;;;;;;;;;;4881747;29;20131;-45
2021/06/11 05:44:59;;;;;;;3.80;2.08;;;;;;;;;;4880447;29;20052;-45
2021/06/11 05:47:25;;;;;;;3.10;2.30;;;;;;;;;;4881599;29;20021;-45
2021/06/11 05:49:50;;;;;;;3.63;2.03;;;;;;;;;;4881690;29;20077;-46
2021/06/11 05:52:16;;;;;;;3.58;2.25;;;;;;;;;;4881492;29;20029;-45
2021/06/11 05:54:41;;;;;;;2.83;2.50;;;;;;;;;;4880161;29;20060;-45
2021/06/11 05:57:06;;;;;;;3.67;2.53;;;;;;;;;;4881560;29;20029;-45
2021/06/11 05:59:32;;;;;;;4.68;2.13;;;;;;;;;;4881891;29;20039;-45
2021/06/11 06:01:57;;;;;;;1.85;1.73;;;;;;;;;;4881488;29;20055;-45
2021/06/11 06:04:23;;;;;;;2.33;2.13;;;;;;;;;;4881518;29;20036;-45
2021/06/11 06:06:48;;;;;;;2.83;2.60;;;;;;;;;;4881344;29;20401;-45
2021/06/11 06:09:14;;;;;;;3.05;2.50;;;;;;;;;;4881544;29;20494;-45
2021/06/11 06:11:39;;;;;;;2.80;2.08;;;;;;;;;;4880656;29;20033;-45
2021/06/11 06:14:05;;;;;;;2.72;2.28;;;;;;;;;;4881402;29;20045;-45
2021/06/11 06:16:30;;;;;;;2.10;1.85;;;;;;;;;;4881061;29;20025;-45
2021/06/11 06:18:56;;;;;;;9.63;2.40;;;;;;;;;;4881458;29;20068;-45
2021/06/11 06:21:23;;;;;;;3.03;2.00;;;;;;;;;;4881316;29;20116;-45
2021/06/11 06:23:49;;;;;;;8.90;2.10;;;;;;;;;;4880930;29;20033;-45
2021/06/11 06:26:14;;;;;;;2.97;2.75;;;;;;;;;;4881076;29;20017;-45
2021/06/11 06:28:40;;;;;;;2.75;1.98;;;;;;;;;;4880806;29;20401;-46
2021/06/11 06:31:05;;;;;;;2.28;1.90;;;;;;;;;;4881002;29;20032;-45
2021/06/11 06:33:30;;;;;;;2.55;2.05;;;;;;;;;;4880710;29;20041;-45
2021/06/11 06:35:56;;;;;;;2.53;2.20;;;;;;;;;;4881045;29;20021;-45
2021/06/11 06:38:24;;;;;;;2.75;1.95;;;;;;;;;;4880712;29;20049;-45
2021/06/11 06:40:57;;;;;;;2.33;2.13;;;;;;;;;;4881086;29;20379;-45
2021/06/11 06:43:22;;;;;;;2.45;1.73;;;;;;;;;;4880643;29;20040;-45
2021/06/11 06:45:47;;;;;;;3.50;1.95;;;;;;;;;;4880951;29;20032;-45
2021/06/11 06:48:13;;;;;;;2.95;2.20;;;;;;;;;;4880903;29;20060;-45
2021/06/11 06:50:38;;;;;;;2.40;2.17;;;;;;;;;;4880764;29;20029;-45
2021/06/11 06:53:05;;;;;;;2.40;2.10;;;;;;;;;;4880468;29;20061;-45
2021/06/11 06:55:30;;;;;;;2.70;2.08;;;;;;;;;;4880461;29;20025;-45
2021/06/11 06:57:56;;;;;;;2.60;1.98;;;;;;;;;;4879507;29;20033;-45
2021/06/11 07:00:22;;;;;;;2.88;2.55;;;;;;;;;;4880477;29;20035;-45
2021/06/11 07:02:47;;;;;;;4.20;2.05;;;;;;;;;;4880538;29;20033;-45
2021/06/11 07:05:15;;;;;;;5.25;2.42;;;;;;;;;;4880625;29;20491;-45
2021/06/11 07:07:40;;;;;;;2.60;1.98;;;;;;;;;;4880260;29;20567;-45
2021/06/11 07:10:06;;;;;;;2.22;1.80;;;;;;;;;;4880473;29;20108;-46
2021/06/11 07:12:32;;;;;;;3.67;1.85;;;;;;;;;;4880011;29;20488;-45
2021/06/11 07:14:57;;;;;;;2.70;2.00;;;;;;;;;;4880236;29;20088;-45
2021/06/11 07:17:23;;;;;;;2.22;2.03;;;;;;;;;;4880081;29;20112;-45
2021/06/11 07:19:48;;;;;;;4.60;2.20;;;;;;;;;;4880089;29;20497;-45
2021/06/11 07:22:14;;;;;;;2.47;1.88;;;;;;;;;;4880173;29;20039;-45
2021/06/11 07:24:39;;;;;;;3.03;1.90;;;;;;;;;;4879149;29;20017;-45
2021/06/11 07:27:05;;;;;;;5.50;2.17;;;;;;;;;;4879936;29;20071;-45
2021/06/11 07:29:30;;;;;;;1.83;1.67;;;;;;;;;;4879798;29;20059;-45
2021/06/11 07:31:56;;;;;;;2.70;2.10;;;;;;;;;;4878635;29;20044;-45
2021/06/11 07:34:21;;;;;;;4.80;1.98;;;;;;;;;;4879721;29;20029;-45
2021/06/11 07:36:46;;;;;;;2.40;2.13;;;;;;;;;;4878370;29;20112;-46
2021/06/11 07:39:12;;;;;;;2.42;2.05;;;;;;;;;;4879706;29;20041;-45
2021/06/11 07:41:37;;;;;;;3.38;2.05;;;;;;;;;;4879653;29;20033;-46
2021/06/11 07:44:03;;;;;;;3.00;2.67;;;;;;;;;;4879654;29;20056;-45
2021/06/11 07:46:28;;;;;;;2.22;2.03;;;;;;;;;;4879547;29;20040;-46
2021/06/11 07:48:54;;;;;;;3.30;2.45;;;;;;;;;;4878324;29;20085;-45
2021/06/11 07:51:19;;;;;;;2.88;2.25;;;;;;;;;;4879565;29;20033;-45
2021/06/11 07:53:45;;;;;;;1.88;1.77;;;;;;;;;;4879254;29;20449;-45
2021/06/11 07:56:10;;;;;;;2.67;1.90;;;;;;;;;;4879496;29;20040;-45
2021/06/11 07:58:36;;;;;;;2.55;1.90;;;;;;;;;;4879323;29;20024;-45
2021/06/11 08:01:01;;;;;;;2.83;1.98;;;;;;;;;;4879350;29;20060;-45
2021/06/11 08:03:27;;;;;;;2.15;1.95;;;;;;;;;;4877959;29;20055;-45
2021/06/11 08:05:52;;;;;;;6.88;2.47;;;;;;;;;;4878163;29;20041;-45
2021/06/11 08:08:18;;;;;;;2.60;2.40;;;;;;;;;;4879225;29;20017;-45
2021/06/11 08:10:44;;;;;;;3.58;2.28;;;;;;;;;;4879103;29;20041;-45
2021/06/11 08:13:09;;;;;;;3.78;1.90;;;;;;;;;;4879134;29;20068;-45
2021/06/11 08:15:34;;;;;;;4.47;2.33;;;;;;;;;;4879022;29;20068;-44
2021/06/11 08:18:00;;;;;;;3.70;2.20;;;;;;;;;;4879198;29;20057;-45
2021/06/11 08:20:26;;;;;;;2.75;2.47;;;;;;;;;;4878987;29;20413;-45
2021/06/11 08:22:51;;;;;;;3.08;2.47;;;;;;;;;;4879169;29;20457;-45
2021/06/11 08:25:16;;;;;;;2.95;2.53;;;;;;;;;;4879046;29;20069;-45
2021/06/11 08:27:42;;;;;;;2.92;2.47;;;;;;;;;;4878939;29;20024;-45
2021/06/11 08:30:09;;;;;;;3.58;2.28;;;;;;;;;;4879211;29;20035;-45
2021/06/11 08:32:35;;;;;;;5.80;2.42;;;;;;;;;;4879029;29;20073;-45
2021/06/11 08:35:00;;;;;;;3.10;2.50;;;;;;;;;;4878708;29;20029;-45
2021/06/11 08:37:26;;;;;;;4.22;2.30;;;;;;;;;;4878640;29;20049;-45
2021/06/11 08:39:56;;;;;;;3.78;2.35;;;;;;;;;;4878940;29;20548;-45
2021/06/11 08:42:30;;;;;;;2.83;2.35;;;;;;;;;;4879092;29;20033;-45
2021/06/11 08:44:56;;;;;;;5.97;2.67;;;;;;;;;;4878751;29;20039;-45
2021/06/11 08:47:22;;;;;;;2.78;2.53;;;;;;;;;;4878792;29;20494;-45
2021/06/11 08:49:48;;;;;;;3.22;2.28;;;;;;;;;;4877443;29;20113;-45
2021/06/11 08:52:13;;;;;;;2.85;1.90;;;;;;;;;;4878648;29;20025;-46
2021/06/11 08:54:39;;;;;;;3.55;2.28;;;;;;;;;;4878607;29;20124;-45
2021/06/11 08:57:04;;;;;;;3.35;2.13;;;;;;;;;;4878669;29;20529;-45
2021/06/11 08:59:29;;;;;;;2.33;2.05;;;;;;;;;;4878578;29;20044;-45
2021/06/11 09:01:55;;;;;;;2.78;1.92;;;;;;;;;;4878646;29;20017;-45
2021/06/11 09:04:38;;;;;;;3.03;2.10;;;;;;;;;;4878485;29;20120;-45
2021/06/11 09:07:23;;;;;;;2.28;1.92;;;;;;;;;;4878730;29;20048;-45
2021/06/11 09:09:53;;;;;;;2.50;1.92;;;;;;;;;;4878719;29;20087;-45
2021/06/11 09:12:28;;;;;;;4.03;2.72;;;;;;;;;;4878456;29;20436;-45
2021/06/11 09:14:55;;;;;;;2.53;1.92;;;;;;;;;;4878826;29;20041;-45
2021/06/11 09:17:34;;;;;;;3.30;2.30;;;;;;;;;;4877321;29;20029;-45
2021/06/11 09:20:07;;;;;;;3.15;2.40;;;;;;;;;;4878750;29;20048;-45
2021/06/11 09:22:51;;;;;;;4.82;2.15;;;;;;;;;;4878319;29;20047;-45
2021/06/11 09:25:35;;;;;;;4.78;2.05;;;;;;;;;;4878482;29;20090;-45
2021/06/11 09:28:05;;;;;;;2.17;1.98;;;;;;;;;;4878451;29;20040;-45
2021/06/11 09:30:36;;;;;;;2.97;2.42;;;;;;;;;;4878339;29;20455;-45
2021/06/11 09:33:04;;;;;;;2.75;2.10;;;;;;;;;;4878221;29;20040;-45
2021/06/11 09:35:37;;;;;;;2.80;2.38;;;;;;;;;;4878577;29;20036;-45
2021/06/11 09:38:17;;;;;;;3.35;2.30;;;;;;;;;;4878265;29;20037;-45
2021/06/11 09:40:45;;;;;;;2.45;2.00;;;;;;;;;;4878430;29;20063;-45
2021/06/11 09:43:10;;;;;;;5.63;2.40;;;;;;;;;;4878199;29;20021;-45
2021/06/11 09:45:36;;;;;;;2.88;2.58;;;;;;;;;;4878480;29;20089;-45
2021/06/11 09:48:02;;;;;;;2.90;2.17;;;;;;;;;;4881477;29;20528;-45
2021/06/11 09:50:28;;;;;;;11.77;2.15;;;;;;;;;;4881617;29;20037;-45
2021/06/11 09:52:54;;;;;;;2.83;2.00;;;;;;;;;;4881554;29;20477;-45
2021/06/11 09:55:25;;;;;;;2.63;2.08;;;;;;;;;;4881798;29;20075;-45
2021/06/11 09:58:05;;;;;;;5.00;2.97;;;;;;;;;;4881566;29;20442;-45
2021/06/11 10:00:31;;;;;;;2.70;2.15;;;;;;;;;;4880143;29;20040;-45
2021/06/11 10:02:57;;;;;;;3.33;3.03;;;;;;;;;;4880257;29;20392;-45
2021/06/11 10:05:23;;;;;;;3.10;2.17;;;;;;;;;;4880156;29;20445;-45
2021/06/11 10:07:49;;;;;;;11.05;2.70;;;;;;;;;;4881594;29;20021;-44
2021/06/11 10:10:14;;;;;;;5.25;2.08;;;;;;;;;;4881409;29;20112;-46
2021/06/11 10:12:40;;;;;;;2.92;2.45;;;;;;;;;;4879773;29;20021;-45
2021/06/11 10:15:05;;;;;;;3.65;2.65;;;;;;;;;;4879955;29;20439;-45
2021/06/11 10:17:31;;;;;;;5.18;2.17;;;;;;;;;;4881188;29;20091;-45
2021/06/11 10:19:56;;;;;;;3.17;2.75;;;;;;;;;;4881476;29;20029;-44
2021/06/11 10:22:22;;;;;;;3.55;2.35;;;;;;;;;;4881026;29;20062;-45
2021/06/11 10:24:48;;;;;;;3.45;2.30;;;;;;;;;;4880930;29;20084;-45
2021/06/11 10:27:13;;;;;;;2.58;2.22;;;;;;;;;;4881369;29;20069;-45
2021/06/11 10:29:39;;;;;;;4.78;1.95;;;;;;;;;;4881136;29;20029;-45
2021/06/11 10:32:04;;;;;;;2.17;1.77;;;;;;;;;;4880908;29;20111;-45
2021/06/11 10:34:48;;;;;;;2.85;2.35;;;;;;;;;;4881042;29;20048;-45
2021/06/11 10:37:44;;;;;;;2.60;1.90;;;;;;;;;;4880660;29;20053;-45
2021/06/11 10:40:13;;;;;;;2.22;1.85;;;;;;;;;;4884200;29;20037;-44
2021/06/11 10:42:38;;;;;;;2.35;2.15;;;;;;;;;;4880902;29;20025;-45
2021/06/11 10:45:04;;;;;;;4.05;2.10;;;;;;;;;;4880646;29;20025;-46
2021/06/11 10:47:30;;;;;;;3.58;2.20;;;;;;;;;;4880706;29;20117;-45
2021/06/11 10:49:59;;;;;;;3.63;2.28;;;;;;;;;;4880957;29;20033;-45
2021/06/11 10:52:33;;;;;;;3.63;2.65;;;;;;;;;;4880464;29;20032;-45
2021/06/11 10:55:14;;;;;;;2.80;2.20;;;;;;;;;;4880616;29;20052;-45
2021/06/11 10:57:40;;;;;;;2.50;2.03;;;;;;;;;;4880571;29;20029;-45
2021/06/11 11:00:26;;;;;;;3.55;2.40;;;;;;;;;;4880722;29;20024;-45
2021/06/11 11:02:58;;;;;;;4.35;2.03;;;;;;;;;;4880301;29;20053;-45
2021/06/11 11:05:31;;;;;;;3.55;2.58;;;;;;;;;;4880298;29;20090;-45
2021/06/11 11:07:57;;;;;;;3.40;2.33;;;;;;;;;;4880442;29;20026;-45
2021/06/11 11:10:43;;;;;;;2.75;2.25;;;;;;;;;;4880320;29;20036;-46
2021/06/11 11:13:09;;;;;;;5.22;2.55;;;;;;;;;;4879956;29;20181;-45
2021/06/11 11:15:39;;;;;;;2.83;2.50;;;;;;;;;;4880069;29;20116;-45
2021/06/11 11:18:08;;;;;;;4.60;2.53;;;;;;;;;;4880429;29;20069;-45
2021/06/11 11:20:34;;;;;;;3.90;2.50;;;;;;;;;;4879932;29;20085;-45
2021/06/11 11:23:01;;;;;;;3.50;2.03;;;;;;;;;;4880075;29;20498;-45
2021/06/11 11:25:26;;;;;;;2.42;2.08;;;;;;;;;;4879887;29;20032;-47
2021/06/11 11:27:53;;;;;;;2.90;1.98;;;;;;;;;;4880161;29;20029;-45
2021/06/11 11:30:19;;;;;;;2.20;2.00;;;;;;;;;;4880232;29;20073;-45
2021/06/11 11:32:45;;;;;;;2.35;1.98;;;;;;;;;;4879600;29;20098;-45
2021/06/11 11:35:13;;;;;;;3.95;2.80;;;;;;;;;;4879779;29;20029;-45
2021/06/11 11:37:39;;;;;;;3.38;2.42;;;;;;;;;;4879536;29;20470;-45
2021/06/11 11:40:05;;;;;;;3.05;2.25;;;;;;;;;;4879720;29;20029;-45
2021/06/11 11:42:30;;;;;;;2.70;2.20;;;;;;;;;;4879206;29;20041;-45
2021/06/11 11:44:55;;;;;;;6.53;2.03;;;;;;;;;;4880057;29;20021;-46
2021/06/11 11:47:21;;;;;;;4.13;2.03;;;;;;;;;;4879939;29;20081;-46
2021/06/11 11:49:46;;;;;;;7.78;2.30;;;;;;;;;;4879450;29;20028;-45
2021/06/11 11:52:12;;;;;;;3.13;1.88;;;;;;;;;;4879763;29;20080;-45
2021/06/11 11:54:52;;;;;;;2.10;1.85;;;;;;;;;;4858087;29;20488;-45
2021/06/11 11:57:17;;;;;;;3.33;2.38;;;;;;;;;;4879622;29;20037;-45
2021/06/11 11:59:43;;;;;;;4.30;2.13;;;;;;;;;;4879380;29;20064;-46
2021/06/11 12:02:09;;;;;;;3.75;2.50;;;;;;;;;;4879570;29;20057;-45
2021/06/11 12:04:34;;;;;;;3.10;2.53;;;;;;;;;;4879475;29;20025;-46
2021/06/11 12:07:00;;;;;;;2.72;2.50;;;;;;;;;;4879385;29;20472;-45
2021/06/11 12:09:25;;;;;;;2.65;2.08;;;;;;;;;;4878834;29;20017;-46
2021/06/11 12:11:51;;;;;;;3.33;2.35;;;;;;;;;;4879133;29;20507;-46
2021/06/11 12:14:16;;;;;;;3.83;1.85;;;;;;;;;;4879166;29;20116;-45
2021/06/11 12:16:42;;;;;;;4.03;2.35;;;;;;;;;;4879019;29;20037;-46
2021/06/11 12:19:07;;;;;;;2.40;1.98;;;;;;;;;;4879473;29;20066;-45
2021/06/11 12:21:33;;;;;;;2.05;1.70;;;;;;;;;;4879077;29;20108;-45
2021/06/11 12:23:58;;;;;;;6.35;2.63;;;;;;;;;;4879002;29;20047;-46
2021/06/11 12:26:24;;;;;;;5.97;2.30;;;;;;;;;;4879069;29;20040;-45
2021/06/11 12:28:49;;;;;;;2.75;2.00;;;;;;;;;;4879180;29;20021;-45
2021/06/11 12:31:15;;;;;;;3.00;2.67;;;;;;;;;;4879203;29;20029;-45
2021/06/11 12:33:41;;;;;;;4.32;1.67;;;;;;;;;;4878753;29;20044;-45
2021/06/11 12:36:06;;;;;;;7.53;2.47;;;;;;;;;;4879227;29;20376;-45
2021/06/11 12:38:32;;;;;;;2.60;2.10;;;;;;;;;;4878723;29;20053;-45
2021/06/11 12:40:59;;;;;;;5.93;2.53;;;;;;;;;;4878883;29;20032;-46
2021/06/11 12:46:10;;;;;;;3.97;2.33;;;;;;;;;;4877439;29;20041;-45
2021/06/11 12:48:35;;;;;;;3.17;1.75;;;;;;;;;;4878980;29;20019;-45
2021/06/11 12:51:01;;;;;;;3.55;2.22;;;;;;;;;;4879022;29;20097;-45
2021/06/11 12:53:26;;;;;;;3.38;2.75;;;;;;;;;;4878631;29;20025;-45
2021/06/11 12:55:51;;;;;;;3.10;2.25;;;;;;;;;;4878633;29;20473;-45
2021/06/11 12:58:17;;;;;;;3.13;2.65;;;;;;;;;;4878590;29;20029;-46
2021/06/11 13:00:42;;;;;;;2.80;2.05;;;;;;;;;;4878796;29;20085;-45
2021/06/11 13:03:08;;;;;;;9.13;2.97;;;;;;;;;;4878672;29;20381;-46
2021/06/11 13:05:33;;;;;;;3.05;2.30;;;;;;;;;;4878829;29;20044;-46
2021/06/11 13:07:58;;;;;;;5.05;2.75;;;;;;;;;;4878635;29;20475;-46
2021/06/11 13:10:24;;;;;;;3.53;2.85;;;;;;;;;;4878534;29;20391;-45
2021/06/11 13:12:49;;;;;;;3.25;2.58;;;;;;;;;;4878588;29;20021;-47
2021/06/11 13:15:15;;;;;;;2.05;1.85;;;;;;;;;;4878569;29;20604;-46
2021/06/11 13:17:40;;;;;;;4.28;2.20;;;;;;;;;;4878425;29;20045;-45
2021/06/11 13:20:06;;;;;;;4.13;2.65;;;;;;;;;;4878514;29;20037;-45
2021/06/11 13:22:31;;;;;;;3.33;2.60;;;;;;;;;;4880762;29;20461;-45
2021/06/11 13:24:57;;;;;;;3.17;2.30;;;;;;;;;;4882723;29;20085;-45
2021/06/11 13:27:22;;;;;;;2.90;2.08;;;;;;;;;;4882127;29;20021;-45
2021/06/11 13:29:48;;;;;;;2.25;1.98;;;;;;;;;;4881990;29;20045;-45
2021/06/11 13:32:13;;;;;;;6.95;2.55;;;;;;;;;;4882088;29;20021;-44
2021/06/11 13:34:38;;;;;;;3.38;1.83;;;;;;;;;;4881838;29;20116;-45
2021/06/11 13:37:04;;;;;;;4.35;1.95;;;;;;;;;;4881808;29;20092;-45
2021/06/11 13:39:29;;;;;;;2.28;2.00;;;;;;;;;;4880989;29;20428;-45
2021/06/11 13:41:55;;;;;;;8.18;2.22;;;;;;;;;;4881750;29;20069;-45
2021/06/11 13:44:21;;;;;;;5.47;2.00;;;;;;;;;;4880932;29;20077;-45
2021/06/11 13:46:46;;;;;;;5.57;2.58;;;;;;;;;;4881667;29;20044;-45
2021/06/11 13:49:12;;;;;;;1.77;1.67;;;;;;;;;;4881981;29;20127;-45
2021/06/11 13:51:37;;;;;;;2.30;2.10;;;;;;;;;;4881529;29;20465;-45
2021/06/11 13:54:03;;;;;;;2.85;2.08;;;;;;;;;;4881696;29;20040;-45
2021/06/11 13:56:28;;;;;;;2.78;1.90;;;;;;;;;;4881488;29;20047;-46
2021/06/11 13:58:54;;;;;;;7.03;2.92;;;;;;;;;;4881541;29;20460;-46
2021/06/11 14:01:19;;;;;;;2.15;1.88;;;;;;;;;;4880291;29;20023;-46
2021/06/11 14:03:45;;;;;;;2.25;1.77;;;;;;;;;;4881421;29;20437;-45
2021/06/11 14:06:10;;;;;;;2.60;1.90;;;;;;;;;;4881800;29;20081;-45
2021/06/11 14:08:35;;;;;;;6.60;2.25;;;;;;;;;;4881349;29;20097;-45
2021/06/11 14:11:01;;;;;;;2.92;2.50;;;;;;;;;;4881359;29;20476;-46
2021/06/11 14:13:28;;;;;;;2.22;1.67;;;;;;;;;;4881400;29;20093;-46
2021/06/11 14:15:54;;;;;;;2.42;2.22;;;;;;;;;;4880994;29;20469;-46
2021/06/11 14:18:23;;;;;;;2.83;2.30;;;;;;;;;;4881267;29;20044;-46
2021/06/11 14:20:49;;;;;;;4.13;2.33;;;;;;;;;;4880566;29;20025;-46
2021/06/11 14:23:14;;;;;;;2.92;2.25;;;;;;;;;;4881138;29;20048;-45
2021/06/11 14:25:43;;;;;;;5.03;2.50;;;;;;;;;;4880903;29;20036;-46
2021/06/11 14:28:09;;;;;;;2.53;2.10;;;;;;;;;;4881317;29;20040;-45
2021/06/11 14:30:34;;;;;;;3.75;2.05;;;;;;;;;;4880954;29;20080;-46
2021/06/11 14:33:00;;;;;;;3.90;2.05;;;;;;;;;;4880496;29;20480;-46
2021/06/11 14:35:25;;;;;;;1.88;1.70;;;;;;;;;;4880883;29;20092;-45
2021/06/11 14:37:51;;;;;;;6.47;1.70;;;;;;;;;;4880608;29;20045;-45
2021/06/11 14:40:16;;;;;;;2.90;2.22;;;;;;;;;;4880926;29;20037;-45
2021/06/11 14:42:41;;;;;;;2.78;1.88;;;;;;;;;;4880570;29;20138;-45
2021/06/11 14:45:07;;;;;;;2.55;1.70;;;;;;;;;;4879522;29;20027;-45